sensor_id;sensor_type;location;lat;lon;timestamp;P1;durP1;ratioP1;P2;durP2;ratioP2
80272;SDS011;69574;45.328;9.598;2024-02-21T00:00:05;69.53;;;37.00;;
80272;SDS011;69574;45.328;9.598;2024-02-21T00:02:32;85.38;;;36.03;;
80272;SDS011;69574;45.328;9.598;2024-02-21T00:07:23;61.10;;;33.20;;
80272;SDS011;69574;45.328;9.598;2024-02-21T00:09:49;63.22;;;34.92;;
80272;SDS011;69574;45.328;9.598;2024-02-21T00:12:15;67.25;;;35.78;;
80272;SDS011;69574;45.328;9.598;2024-02-21T00:14:40;58.50;;;32.88;;
80272;SDS011;69574;45.328;9.598;2024-02-21T00:17:06;48.20;;;29.13;;
80272;SDS011;69574;45.328;9.598;2024-02-21T00:19:35;43.78;;;28.08;;
80272;SDS011;69574;45.328;9.598;2024-02-21T00:22:01;50.75;;;29.63;;
80272;SDS011;69574;45.328;9.598;2024-02-21T00:24:26;51.20;;;30.55;;
80272;SDS011;69574;45.328;9.598;2024-02-21T00:26:53;54.20;;;29.90;;
80272;SDS011;69574;45.328;9.598;2024-02-21T00:29:18;45.92;;;28.67;;
80272;SDS011;69574;45.328;9.598;2024-02-21T00:31:44;56.33;;;32.90;;
80272;SDS011;69574;45.328;9.598;2024-02-21T00:34:09;61.72;;;34.42;;
80272;SDS011;69574;45.328;9.598;2024-02-21T00:36:37;77.57;;;40.20;;
80272;SDS011;69574;45.328;9.598;2024-02-21T00:39:03;85.20;;;41.80;;
80272;SDS011;69574;45.328;9.598;2024-02-21T00:41:29;64.55;;;35.33;;
80272;SDS011;69574;45.328;9.598;2024-02-21T00:43:54;69.72;;;38.15;;
80272;SDS011;69574;45.328;9.598;2024-02-21T00:46:21;66.07;;;34.78;;
80272;SDS011;69574;45.328;9.598;2024-02-21T00:48:47;71.28;;;37.13;;
80272;SDS011;69574;45.328;9.598;2024-02-21T00:51:13;69.65;;;37.95;;
80272;SDS011;69574;45.328;9.598;2024-02-21T00:53:40;42.17;;;27.05;;
80272;SDS011;69574;45.328;9.598;2024-02-21T00:56:06;78.40;;;39.50;;
80272;SDS011;69574;45.328;9.598;2024-02-21T00:58:31;67.90;;;36.28;;
80272;SDS011;69574;45.328;9.598;2024-02-21T01:00:57;64.30;;;37.38;;
80272;SDS011;69574;45.328;9.598;2024-02-21T01:03:22;91.47;;;45.97;;
80272;SDS011;69574;45.328;9.598;2024-02-21T01:05:48;99.32;;;47.30;;
80272;SDS011;69574;45.328;9.598;2024-02-21T01:08:13;83.28;;;41.97;;
80272;SDS011;69574;45.328;9.598;2024-02-21T01:10:40;75.80;;;42.22;;
80272;SDS011;69574;45.328;9.598;2024-02-21T01:13:06;63.05;;;35.97;;
80272;SDS011;69574;45.328;9.598;2024-02-21T01:15:32;58.60;;;33.47;;
80272;SDS011;69574;45.328;9.598;2024-02-21T01:17:58;63.25;;;35.75;;
80272;SDS011;69574;45.328;9.598;2024-02-21T01:20:24;66.45;;;37.08;;
80272;SDS011;69574;45.328;9.598;2024-02-21T01:22:49;61.45;;;36.10;;
80272;SDS011;69574;45.328;9.598;2024-02-21T01:25:15;66.43;;;36.92;;
80272;SDS011;69574;45.328;9.598;2024-02-21T01:27:42;47.03;;;28.73;;
80272;SDS011;69574;45.328;9.598;2024-02-21T01:32:33;44.47;;;26.77;;
80272;SDS011;69574;45.328;9.598;2024-02-21T01:34:59;43.15;;;26.02;;
80272;SDS011;69574;45.328;9.598;2024-02-21T01:37:24;38.05;;;25.02;;
80272;SDS011;69574;45.328;9.598;2024-02-21T01:39:50;46.97;;;29.85;;
80272;SDS011;69574;45.328;9.598;2024-02-21T01:42:16;66.13;;;33.35;;
80272;SDS011;69574;45.328;9.598;2024-02-21T01:44:43;64.95;;;36.10;;
80272;SDS011;69574;45.328;9.598;2024-02-21T01:47:09;78.10;;;40.50;;
80272;SDS011;69574;45.328;9.598;2024-02-21T01:49:35;73.95;;;38.70;;
80272;SDS011;69574;45.328;9.598;2024-02-21T01:52:01;65.10;;;35.67;;
80272;SDS011;69574;45.328;9.598;2024-02-21T01:54:28;66.13;;;37.15;;
80272;SDS011;69574;45.328;9.598;2024-02-21T01:56:54;65.10;;;36.20;;
80272;SDS011;69574;45.328;9.598;2024-02-21T01:59:19;70.60;;;38.28;;
80272;SDS011;69574;45.328;9.598;2024-02-21T02:04:14;62.63;;;35.22;;
80272;SDS011;69574;45.328;9.598;2024-02-21T02:09:04;47.40;;;27.83;;
80272;SDS011;69574;45.328;9.598;2024-02-21T02:11:31;43.05;;;24.45;;
80272;SDS011;69574;45.328;9.598;2024-02-21T02:13:57;37.75;;;23.50;;
80272;SDS011;69574;45.328;9.598;2024-02-21T02:16:22;36.00;;;24.23;;
80272;SDS011;69574;45.328;9.598;2024-02-21T02:18:48;39.53;;;24.95;;
80272;SDS011;69574;45.328;9.598;2024-02-21T02:21:16;38.97;;;25.02;;
80272;SDS011;69574;45.328;9.598;2024-02-21T02:23:49;36.00;;;23.75;;
80272;SDS011;69574;45.328;9.598;2024-02-21T02:26:15;36.97;;;24.15;;
80272;SDS011;69574;45.328;9.598;2024-02-21T02:28:41;37.60;;;25.88;;
80272;SDS011;69574;45.328;9.598;2024-02-21T02:31:06;39.15;;;24.98;;
80272;SDS011;69574;45.328;9.598;2024-02-21T02:33:32;42.60;;;26.17;;
80272;SDS011;69574;45.328;9.598;2024-02-21T02:35:58;43.20;;;26.88;;
80272;SDS011;69574;45.328;9.598;2024-02-21T02:38:24;45.75;;;28.80;;
80272;SDS011;69574;45.328;9.598;2024-02-21T02:40:51;58.88;;;29.58;;
80272;SDS011;69574;45.328;9.598;2024-02-21T02:43:16;102.15;;;33.60;;
80272;SDS011;69574;45.328;9.598;2024-02-21T02:45:42;49.78;;;29.95;;
80272;SDS011;69574;45.328;9.598;2024-02-21T02:48:07;47.05;;;29.67;;
80272;SDS011;69574;45.328;9.598;2024-02-21T02:50:33;52.10;;;30.42;;
80272;SDS011;69574;45.328;9.598;2024-02-21T02:52:58;50.20;;;29.48;;
80272;SDS011;69574;45.328;9.598;2024-02-21T02:55:24;52.95;;;31.02;;
80272;SDS011;69574;45.328;9.598;2024-02-21T02:57:52;46.42;;;29.20;;
80272;SDS011;69574;45.328;9.598;2024-02-21T03:00:18;69.80;;;32.72;;
80272;SDS011;69574;45.328;9.598;2024-02-21T03:02:44;73.63;;;33.00;;
80272;SDS011;69574;45.328;9.598;2024-02-21T03:05:12;53.80;;;30.58;;
80272;SDS011;69574;45.328;9.598;2024-02-21T03:07:38;70.40;;;31.40;;
80272;SDS011;69574;45.328;9.598;2024-02-21T03:10:04;61.40;;;30.88;;
80272;SDS011;69574;45.328;9.598;2024-02-21T03:12:30;60.25;;;30.02;;
80272;SDS011;69574;45.328;9.598;2024-02-21T03:14:57;73.85;;;30.90;;
80272;SDS011;69574;45.328;9.598;2024-02-21T03:17:22;92.97;;;32.88;;
80272;SDS011;69574;45.328;9.598;2024-02-21T03:19:48;78.35;;;32.17;;
80272;SDS011;69574;45.328;9.598;2024-02-21T03:22:15;57.78;;;32.38;;
80272;SDS011;69574;45.328;9.598;2024-02-21T03:24:41;72.75;;;37.42;;
80272;SDS011;69574;45.328;9.598;2024-02-21T03:27:06;69.47;;;38.92;;
80272;SDS011;69574;45.328;9.598;2024-02-21T03:29:32;60.35;;;33.00;;
80272;SDS011;69574;45.328;9.598;2024-02-21T03:31:59;53.40;;;31.40;;
80272;SDS011;69574;45.328;9.598;2024-02-21T03:34:24;47.50;;;27.92;;
80272;SDS011;69574;45.328;9.598;2024-02-21T03:36:50;42.97;;;26.10;;
80272;SDS011;69574;45.328;9.598;2024-02-21T03:39:15;40.08;;;24.85;;
80272;SDS011;69574;45.328;9.598;2024-02-21T03:41:41;39.83;;;26.00;;
80272;SDS011;69574;45.328;9.598;2024-02-21T03:44:06;37.47;;;23.80;;
80272;SDS011;69574;45.328;9.598;2024-02-21T03:46:32;33.75;;;23.85;;
80272;SDS011;69574;45.328;9.598;2024-02-21T03:48:59;31.88;;;21.92;;
80272;SDS011;69574;45.328;9.598;2024-02-21T03:51:25;30.70;;;21.52;;
80272;SDS011;69574;45.328;9.598;2024-02-21T03:53:51;33.72;;;23.15;;
80272;SDS011;69574;45.328;9.598;2024-02-21T03:56:16;36.58;;;23.95;;
80272;SDS011;69574;45.328;9.598;2024-02-21T03:58:42;35.08;;;22.52;;
80272;SDS011;69574;45.328;9.598;2024-02-21T04:01:07;30.25;;;21.05;;
80272;SDS011;69574;45.328;9.598;2024-02-21T04:03:33;30.45;;;21.10;;
80272;SDS011;69574;45.328;9.598;2024-02-21T04:06:01;29.50;;;21.20;;
80272;SDS011;69574;45.328;9.598;2024-02-21T04:08:26;38.95;;;25.60;;
80272;SDS011;69574;45.328;9.598;2024-02-21T04:10:52;31.58;;;21.83;;
80272;SDS011;69574;45.328;9.598;2024-02-21T04:13:18;31.50;;;22.45;;
80272;SDS011;69574;45.328;9.598;2024-02-21T04:15:43;36.50;;;23.35;;
80272;SDS011;69574;45.328;9.598;2024-02-21T04:18:09;38.90;;;24.70;;
80272;SDS011;69574;45.328;9.598;2024-02-21T04:20:34;45.67;;;26.08;;
80272;SDS011;69574;45.328;9.598;2024-02-21T04:23:02;42.85;;;24.40;;
80272;SDS011;69574;45.328;9.598;2024-02-21T04:25:27;46.28;;;26.48;;
80272;SDS011;69574;45.328;9.598;2024-02-21T04:27:53;38.70;;;23.25;;
80272;SDS011;69574;45.328;9.598;2024-02-21T04:30:18;41.38;;;24.05;;
80272;SDS011;69574;45.328;9.598;2024-02-21T04:32:44;49.42;;;28.08;;
80272;SDS011;69574;45.328;9.598;2024-02-21T04:35:10;43.80;;;24.85;;
80272;SDS011;69574;45.328;9.598;2024-02-21T04:37:35;45.03;;;26.10;;
80272;SDS011;69574;45.328;9.598;2024-02-21T04:40:03;41.78;;;23.98;;
80272;SDS011;69574;45.328;9.598;2024-02-21T04:42:28;41.72;;;23.60;;
80272;SDS011;69574;45.328;9.598;2024-02-21T04:44:54;43.03;;;25.73;;
80272;SDS011;69574;45.328;9.598;2024-02-21T04:47:19;45.00;;;25.63;;
80272;SDS011;69574;45.328;9.598;2024-02-21T04:49:45;55.60;;;28.30;;
80272;SDS011;69574;45.328;9.598;2024-02-21T04:52:11;44.10;;;26.65;;
80272;SDS011;69574;45.328;9.598;2024-02-21T04:54:36;45.65;;;25.17;;
80272;SDS011;69574;45.328;9.598;2024-02-21T04:57:04;44.78;;;24.27;;
80272;SDS011;69574;45.328;9.598;2024-02-21T04:59:29;38.78;;;23.08;;
80272;SDS011;69574;45.328;9.598;2024-02-21T05:01:55;38.45;;;22.63;;
80272;SDS011;69574;45.328;9.598;2024-02-21T05:04:20;44.33;;;25.20;;
80272;SDS011;69574;45.328;9.598;2024-02-21T05:06:46;44.65;;;25.42;;
80272;SDS011;69574;45.328;9.598;2024-02-21T05:09:11;41.53;;;23.52;;
80272;SDS011;69574;45.328;9.598;2024-02-21T05:11:37;45.40;;;23.98;;
80272;SDS011;69574;45.328;9.598;2024-02-21T05:14:06;42.50;;;25.13;;
80272;SDS011;69574;45.328;9.598;2024-02-21T05:16:32;40.35;;;22.55;;
80272;SDS011;69574;45.328;9.598;2024-02-21T05:18:58;38.05;;;21.67;;
80272;SDS011;69574;45.328;9.598;2024-02-21T05:21:23;43.22;;;24.50;;
80272;SDS011;69574;45.328;9.598;2024-02-21T05:23:49;45.13;;;23.98;;
80272;SDS011;69574;45.328;9.598;2024-02-21T05:26:19;46.83;;;24.27;;
80272;SDS011;69574;45.328;9.598;2024-02-21T05:28:45;43.75;;;23.45;;
80272;SDS011;69574;45.328;9.598;2024-02-21T05:31:12;42.45;;;23.85;;
80272;SDS011;69574;45.328;9.598;2024-02-21T05:33:37;45.38;;;24.38;;
80272;SDS011;69574;45.328;9.598;2024-02-21T05:36:03;45.45;;;25.35;;
80272;SDS011;69574;45.328;9.598;2024-02-21T05:38:28;40.65;;;22.80;;
80272;SDS011;69574;45.328;9.598;2024-02-21T05:40:54;39.55;;;22.05;;
80272;SDS011;69574;45.328;9.598;2024-02-21T05:43:19;45.00;;;24.75;;
80272;SDS011;69574;45.328;9.598;2024-02-21T05:45:45;48.38;;;24.25;;
80272;SDS011;69574;45.328;9.598;2024-02-21T05:48:12;46.72;;;24.10;;
80272;SDS011;69574;45.328;9.598;2024-02-21T05:50:37;44.40;;;23.48;;
80272;SDS011;69574;45.328;9.598;2024-02-21T05:53:03;44.53;;;22.45;;
80272;SDS011;69574;45.328;9.598;2024-02-21T05:55:29;51.30;;;24.40;;
80272;SDS011;69574;45.328;9.598;2024-02-21T05:57:54;47.78;;;24.75;;
80272;SDS011;69574;45.328;9.598;2024-02-21T06:00:20;48.33;;;24.40;;
80272;SDS011;69574;45.328;9.598;2024-02-21T06:02:46;116.72;;;28.00;;
80272;SDS011;69574;45.328;9.598;2024-02-21T06:05:13;54.45;;;25.92;;
80272;SDS011;69574;45.328;9.598;2024-02-21T06:07:38;46.03;;;22.52;;
80272;SDS011;69574;45.328;9.598;2024-02-21T06:10:05;47.72;;;24.13;;
80272;SDS011;69574;45.328;9.598;2024-02-21T06:12:30;46.35;;;21.67;;
80272;SDS011;69574;45.328;9.598;2024-02-21T06:14:56;50.30;;;22.27;;
80272;SDS011;69574;45.328;9.598;2024-02-21T06:17:21;48.65;;;23.90;;
80272;SDS011;69574;45.328;9.598;2024-02-21T06:19:47;46.92;;;22.98;;
80272;SDS011;69574;45.328;9.598;2024-02-21T06:22:14;47.45;;;21.83;;
80272;SDS011;69574;45.328;9.598;2024-02-21T06:24:39;47.80;;;24.23;;
80272;SDS011;69574;45.328;9.598;2024-02-21T06:27:05;46.83;;;22.23;;
80272;SDS011;69574;45.328;9.598;2024-02-21T06:29:34;44.58;;;22.15;;
80272;SDS011;69574;45.328;9.598;2024-02-21T06:32:00;41.70;;;20.13;;
80272;SDS011;69574;45.328;9.598;2024-02-21T06:34:25;44.40;;;21.08;;
80272;SDS011;69574;45.328;9.598;2024-02-21T06:36:51;41.15;;;20.38;;
80272;SDS011;69574;45.328;9.598;2024-02-21T06:39:18;47.75;;;23.00;;
80272;SDS011;69574;45.328;9.598;2024-02-21T06:41:44;50.55;;;23.08;;
80272;SDS011;69574;45.328;9.598;2024-02-21T06:44:09;49.45;;;24.73;;
80272;SDS011;69574;45.328;9.598;2024-02-21T06:46:35;81.90;;;42.90;;
80272;SDS011;69574;45.328;9.598;2024-02-21T06:49:00;55.40;;;27.10;;
80272;SDS011;69574;45.328;9.598;2024-02-21T06:51:26;50.22;;;24.70;;
80272;SDS011;69574;45.328;9.598;2024-02-21T06:53:52;52.05;;;24.70;;
80272;SDS011;69574;45.328;9.598;2024-02-21T06:56:19;47.47;;;23.55;;
80272;SDS011;69574;45.328;9.598;2024-02-21T07:01:10;45.30;;;22.50;;
80272;SDS011;69574;45.328;9.598;2024-02-21T07:03:35;45.38;;;22.02;;
80272;SDS011;69574;45.328;9.598;2024-02-21T07:06:01;42.30;;;20.75;;
80272;SDS011;69574;45.328;9.598;2024-02-21T07:08:27;39.90;;;20.15;;
80272;SDS011;69574;45.328;9.598;2024-02-21T07:10:52;44.22;;;21.90;;
80272;SDS011;69574;45.328;9.598;2024-02-21T07:13:19;47.08;;;20.20;;
80272;SDS011;69574;45.328;9.598;2024-02-21T07:15:45;42.88;;;20.55;;
80272;SDS011;69574;45.328;9.598;2024-02-21T07:18:11;48.67;;;24.48;;
80272;SDS011;69574;45.328;9.598;2024-02-21T07:20:36;41.40;;;21.92;;
80272;SDS011;69574;45.328;9.598;2024-02-21T07:23:02;43.53;;;20.75;;
80272;SDS011;69574;45.328;9.598;2024-02-21T07:25:28;40.20;;;20.05;;
80272;SDS011;69574;45.328;9.598;2024-02-21T07:27:53;39.40;;;19.90;;
80272;SDS011;69574;45.328;9.598;2024-02-21T07:30:20;39.28;;;20.75;;
80272;SDS011;69574;45.328;9.598;2024-02-21T07:32:48;36.13;;;19.33;;
80272;SDS011;69574;45.328;9.598;2024-02-21T07:35:14;35.80;;;19.88;;
80272;SDS011;69574;45.328;9.598;2024-02-21T07:37:39;34.03;;;19.17;;
80272;SDS011;69574;45.328;9.598;2024-02-21T07:40:05;36.70;;;19.67;;
80272;SDS011;69574;45.328;9.598;2024-02-21T07:42:31;39.97;;;19.13;;
80272;SDS011;69574;45.328;9.598;2024-02-21T07:44:57;39.25;;;20.10;;
80272;SDS011;69574;45.328;9.598;2024-02-21T07:47:24;39.33;;;21.00;;
80272;SDS011;69574;45.328;9.598;2024-02-21T07:49:49;39.25;;;20.35;;
80272;SDS011;69574;45.328;9.598;2024-02-21T07:52:15;38.47;;;19.77;;
80272;SDS011;69574;45.328;9.598;2024-02-21T07:54:40;34.72;;;18.85;;
80272;SDS011;69574;45.328;9.598;2024-02-21T07:57:06;38.30;;;18.83;;
80272;SDS011;69574;45.328;9.598;2024-02-21T07:59:32;33.05;;;18.88;;
80272;SDS011;69574;45.328;9.598;2024-02-21T08:01:57;40.53;;;20.77;;
80272;SDS011;69574;45.328;9.598;2024-02-21T08:04:25;37.03;;;19.63;;
80272;SDS011;69574;45.328;9.598;2024-02-21T08:06:51;35.38;;;19.88;;
80272;SDS011;69574;45.328;9.598;2024-02-21T08:09:18;34.50;;;18.85;;
80272;SDS011;69574;45.328;9.598;2024-02-21T08:11:44;36.35;;;19.27;;
80272;SDS011;69574;45.328;9.598;2024-02-21T08:14:09;40.35;;;19.20;;
80272;SDS011;69574;45.328;9.598;2024-02-21T08:16:35;38.53;;;19.60;;
80272;SDS011;69574;45.328;9.598;2024-02-21T08:19:00;36.50;;;19.83;;
80272;SDS011;69574;45.328;9.598;2024-02-21T08:21:29;34.92;;;19.02;;
80272;SDS011;69574;45.328;9.598;2024-02-21T08:23:55;38.67;;;18.45;;
80272;SDS011;69574;45.328;9.598;2024-02-21T08:26:20;38.67;;;18.58;;
80272;SDS011;69574;45.328;9.598;2024-02-21T08:28:46;32.08;;;17.02;;
80272;SDS011;69574;45.328;9.598;2024-02-21T08:31:18;35.95;;;17.73;;
80272;SDS011;69574;45.328;9.598;2024-02-21T08:33:43;40.08;;;18.00;;
80272;SDS011;69574;45.328;9.598;2024-02-21T08:36:09;34.65;;;16.92;;
80272;SDS011;69574;45.328;9.598;2024-02-21T08:38:36;48.05;;;17.52;;
80272;SDS011;69574;45.328;9.598;2024-02-21T08:41:01;36.40;;;17.70;;
80272;SDS011;69574;45.328;9.598;2024-02-21T08:43:27;37.10;;;16.65;;
80272;SDS011;69574;45.328;9.598;2024-02-21T08:45:52;35.13;;;17.63;;
80272;SDS011;69574;45.328;9.598;2024-02-21T08:48:18;42.80;;;21.63;;
80272;SDS011;69574;45.328;9.598;2024-02-21T08:50:43;37.00;;;19.50;;
80272;SDS011;69574;45.328;9.598;2024-02-21T08:53:09;39.50;;;18.52;;
80272;SDS011;69574;45.328;9.598;2024-02-21T08:55:37;44.63;;;21.40;;
80272;SDS011;69574;45.328;9.598;2024-02-21T09:00:29;43.17;;;20.67;;
80272;SDS011;69574;45.328;9.598;2024-02-21T09:02:55;46.97;;;24.17;;
80272;SDS011;69574;45.328;9.598;2024-02-21T09:05:23;47.38;;;24.60;;
80272;SDS011;69574;45.328;9.598;2024-02-21T09:07:50;47.53;;;24.85;;
80272;SDS011;69574;45.328;9.598;2024-02-21T09:10:15;49.88;;;25.73;;
80272;SDS011;69574;45.328;9.598;2024-02-21T09:12:42;57.47;;;30.02;;
80272;SDS011;69574;45.328;9.598;2024-02-21T09:15:09;51.60;;;26.23;;
80272;SDS011;69574;45.328;9.598;2024-02-21T09:17:34;52.35;;;26.90;;
80272;SDS011;69574;45.328;9.598;2024-02-21T09:20:00;51.60;;;26.63;;
80272;SDS011;69574;45.328;9.598;2024-02-21T09:22:28;51.25;;;27.27;;
80272;SDS011;69574;45.328;9.598;2024-02-21T09:24:54;53.35;;;27.88;;
80272;SDS011;69574;45.328;9.598;2024-02-21T09:27:19;51.28;;;27.15;;
80272;SDS011;69574;45.328;9.598;2024-02-21T09:29:47;51.10;;;26.63;;
80272;SDS011;69574;45.328;9.598;2024-02-21T09:32:14;50.60;;;27.42;;
80272;SDS011;69574;45.328;9.598;2024-02-21T09:34:39;51.13;;;25.83;;
80272;SDS011;69574;45.328;9.598;2024-02-21T09:37:05;63.50;;;28.30;;
80272;SDS011;69574;45.328;9.598;2024-02-21T09:39:30;48.83;;;26.38;;
80272;SDS011;69574;45.328;9.598;2024-02-21T09:41:58;59.83;;;26.45;;
80272;SDS011;69574;45.328;9.598;2024-02-21T09:44:24;44.92;;;25.10;;
80272;SDS011;69574;45.328;9.598;2024-02-21T09:46:52;48.85;;;25.65;;
80272;SDS011;69574;45.328;9.598;2024-02-21T09:49:21;49.33;;;26.85;;
80272;SDS011;69574;45.328;9.598;2024-02-21T09:51:51;49.13;;;25.55;;
80272;SDS011;69574;45.328;9.598;2024-02-21T09:54:19;47.10;;;25.10;;
80272;SDS011;69574;45.328;9.598;2024-02-21T09:56:45;46.70;;;24.65;;
80272;SDS011;69574;45.328;9.598;2024-02-21T09:59:12;51.85;;;29.30;;
80272;SDS011;69574;45.328;9.598;2024-02-21T10:01:38;47.67;;;27.48;;
80272;SDS011;69574;45.328;9.598;2024-02-21T10:04:05;46.85;;;25.63;;
80272;SDS011;69574;45.328;9.598;2024-02-21T10:06:30;48.97;;;27.08;;
80272;SDS011;69574;45.328;9.598;2024-02-21T10:08:56;43.78;;;24.95;;
80272;SDS011;69574;45.328;9.598;2024-02-21T10:11:22;42.53;;;23.48;;
80272;SDS011;69574;45.328;9.598;2024-02-21T10:13:48;46.10;;;25.95;;
80272;SDS011;69574;45.328;9.598;2024-02-21T10:16:14;45.47;;;24.65;;
80272;SDS011;69574;45.328;9.598;2024-02-21T10:18:40;43.35;;;24.25;;
80272;SDS011;69574;45.328;9.598;2024-02-21T10:21:07;44.70;;;22.63;;
80272;SDS011;69574;45.328;9.598;2024-02-21T10:23:43;41.92;;;22.80;;
80272;SDS011;69574;45.328;9.598;2024-02-21T10:26:09;41.53;;;23.25;;
80272;SDS011;69574;45.328;9.598;2024-02-21T10:28:34;53.53;;;23.05;;
80272;SDS011;69574;45.328;9.598;2024-02-21T10:31:00;45.60;;;24.02;;
80272;SDS011;69574;45.328;9.598;2024-02-21T10:33:26;39.33;;;22.45;;
80272;SDS011;69574;45.328;9.598;2024-02-21T10:35:53;40.35;;;22.90;;
80272;SDS011;69574;45.328;9.598;2024-02-21T10:38:20;41.58;;;22.63;;
80272;SDS011;69574;45.328;9.598;2024-02-21T10:43:11;41.13;;;22.57;;
80272;SDS011;69574;45.328;9.598;2024-02-21T10:45:37;41.75;;;22.98;;
80272;SDS011;69574;45.328;9.598;2024-02-21T10:48:08;40.58;;;22.25;;
80272;SDS011;69574;45.328;9.598;2024-02-21T10:50:36;39.20;;;21.90;;
80272;SDS011;69574;45.328;9.598;2024-02-21T10:53:09;43.30;;;22.75;;
80272;SDS011;69574;45.328;9.598;2024-02-21T10:55:41;38.97;;;21.23;;
80272;SDS011;69574;45.328;9.598;2024-02-21T10:58:08;41.33;;;23.10;;
80272;SDS011;69574;45.328;9.598;2024-02-21T11:00:35;43.55;;;22.92;;
80272;SDS011;69574;45.328;9.598;2024-02-21T11:03:02;42.83;;;24.27;;
80272;SDS011;69574;45.328;9.598;2024-02-21T11:05:28;42.95;;;23.48;;
80272;SDS011;69574;45.328;9.598;2024-02-21T11:07:54;44.78;;;24.48;;
80272;SDS011;69574;45.328;9.598;2024-02-21T11:10:20;40.88;;;22.30;;
80272;SDS011;69574;45.328;9.598;2024-02-21T11:12:49;48.45;;;25.15;;
80272;SDS011;69574;45.328;9.598;2024-02-21T11:15:17;44.65;;;24.88;;
80272;SDS011;69574;45.328;9.598;2024-02-21T11:17:51;44.67;;;25.10;;
80272;SDS011;69574;45.328;9.598;2024-02-21T11:20:18;45.90;;;25.08;;
80272;SDS011;69574;45.328;9.598;2024-02-21T11:22:44;42.40;;;25.02;;
80272;SDS011;69574;45.328;9.598;2024-02-21T11:25:10;47.38;;;26.52;;
80272;SDS011;69574;45.328;9.598;2024-02-21T11:30:04;47.40;;;25.40;;
80272;SDS011;69574;45.328;9.598;2024-02-21T11:32:30;56.60;;;26.15;;
80272;SDS011;69574;45.328;9.598;2024-02-21T11:34:56;48.10;;;27.42;;
80272;SDS011;69574;45.328;9.598;2024-02-21T11:37:26;48.03;;;27.35;;
80272;SDS011;69574;45.328;9.598;2024-02-21T11:39:53;51.33;;;27.60;;
80272;SDS011;69574;45.328;9.598;2024-02-21T11:42:18;47.97;;;28.10;;
80272;SDS011;69574;45.328;9.598;2024-02-21T11:44:45;48.65;;;27.05;;
80272;SDS011;69574;45.328;9.598;2024-02-21T11:47:13;53.33;;;28.05;;
80272;SDS011;69574;45.328;9.598;2024-02-21T11:49:44;48.67;;;27.25;;
80272;SDS011;69574;45.328;9.598;2024-02-21T11:52:11;51.08;;;27.55;;
80272;SDS011;69574;45.328;9.598;2024-02-21T11:54:36;46.90;;;25.70;;
80272;SDS011;69574;45.328;9.598;2024-02-21T11:57:02;47.72;;;26.90;;
80272;SDS011;69574;45.328;9.598;2024-02-21T12:01:55;47.65;;;27.30;;
80272;SDS011;69574;45.328;9.598;2024-02-21T12:04:23;53.00;;;29.02;;
80272;SDS011;69574;45.328;9.598;2024-02-21T12:06:51;49.15;;;28.15;;
80272;SDS011;69574;45.328;9.598;2024-02-21T12:09:17;49.33;;;27.45;;
80272;SDS011;69574;45.328;9.598;2024-02-21T12:11:43;50.42;;;28.08;;
80272;SDS011;69574;45.328;9.598;2024-02-21T12:14:09;48.97;;;27.90;;
80272;SDS011;69574;45.328;9.598;2024-02-21T12:16:34;51.70;;;28.08;;
80272;SDS011;69574;45.328;9.598;2024-02-21T12:19:02;50.58;;;27.88;;
80272;SDS011;69574;45.328;9.598;2024-02-21T12:21:31;55.20;;;31.17;;
80272;SDS011;69574;45.328;9.598;2024-02-21T12:23:58;53.60;;;28.73;;
80272;SDS011;69574;45.328;9.598;2024-02-21T12:26:23;55.28;;;30.42;;
80272;SDS011;69574;45.328;9.598;2024-02-21T12:28:49;55.30;;;30.40;;
80272;SDS011;69574;45.328;9.598;2024-02-21T12:31:14;56.70;;;30.98;;
80272;SDS011;69574;45.328;9.598;2024-02-21T12:36:06;55.55;;;28.98;;
80272;SDS011;69574;45.328;9.598;2024-02-21T12:38:35;52.22;;;29.48;;
80272;SDS011;69574;45.328;9.598;2024-02-21T12:41:01;54.38;;;30.83;;
80272;SDS011;69574;45.328;9.598;2024-02-21T12:43:26;56.53;;;31.30;;
80272;SDS011;69574;45.328;9.598;2024-02-21T12:45:52;56.53;;;32.22;;
80272;SDS011;69574;45.328;9.598;2024-02-21T12:48:17;52.28;;;27.88;;
80272;SDS011;69574;45.328;9.598;2024-02-21T12:50:47;51.63;;;30.17;;
80272;SDS011;69574;45.328;9.598;2024-02-21T12:53:13;50.85;;;30.00;;
80272;SDS011;69574;45.328;9.598;2024-02-21T12:55:42;55.67;;;29.27;;
80272;SDS011;69574;45.328;9.598;2024-02-21T12:58:07;56.05;;;29.00;;
80272;SDS011;69574;45.328;9.598;2024-02-21T13:00:34;50.10;;;28.42;;
80272;SDS011;69574;45.328;9.598;2024-02-21T13:03:00;55.20;;;29.08;;
80272;SDS011;69574;45.328;9.598;2024-02-21T13:05:26;55.05;;;29.75;;
80272;SDS011;69574;45.328;9.598;2024-02-21T13:07:52;52.05;;;28.45;;
80272;SDS011;69574;45.328;9.598;2024-02-21T13:10:18;49.63;;;28.27;;
80272;SDS011;69574;45.328;9.598;2024-02-21T13:12:45;49.42;;;27.75;;
80272;SDS011;69574;45.328;9.598;2024-02-21T13:17:37;49.50;;;27.17;;
80272;SDS011;69574;45.328;9.598;2024-02-21T13:20:03;53.85;;;28.17;;
80272;SDS011;69574;45.328;9.598;2024-02-21T13:22:29;47.35;;;27.73;;
80272;SDS011;69574;45.328;9.598;2024-02-21T13:24:54;49.95;;;27.38;;
80272;SDS011;69574;45.328;9.598;2024-02-21T13:27:20;49.45;;;26.95;;
80272;SDS011;69574;45.328;9.598;2024-02-21T13:29:47;47.63;;;26.60;;
80272;SDS011;69574;45.328;9.598;2024-02-21T13:32:12;48.60;;;27.35;;
80272;SDS011;69574;45.328;9.598;2024-02-21T13:34:38;47.53;;;26.67;;
80272;SDS011;69574;45.328;9.598;2024-02-21T13:37:04;46.15;;;26.05;;
80272;SDS011;69574;45.328;9.598;2024-02-21T13:39:32;48.60;;;26.48;;
80272;SDS011;69574;45.328;9.598;2024-02-21T13:42:00;46.05;;;27.50;;
80272;SDS011;69574;45.328;9.598;2024-02-21T13:44:25;46.83;;;26.27;;
80272;SDS011;69574;45.328;9.598;2024-02-21T13:46:52;47.35;;;25.95;;
80272;SDS011;69574;45.328;9.598;2024-02-21T13:49:18;44.95;;;25.58;;
80272;SDS011;69574;45.328;9.598;2024-02-21T13:51:43;49.03;;;27.00;;
80272;SDS011;69574;45.328;9.598;2024-02-21T13:54:10;47.65;;;26.17;;
80272;SDS011;69574;45.328;9.598;2024-02-21T13:56:36;48.17;;;26.17;;
80272;SDS011;69574;45.328;9.598;2024-02-21T13:59:02;49.65;;;27.45;;
80272;SDS011;69574;45.328;9.598;2024-02-21T14:01:27;48.60;;;27.80;;
80272;SDS011;69574;45.328;9.598;2024-02-21T14:03:54;47.50;;;26.67;;
80272;SDS011;69574;45.328;9.598;2024-02-21T14:08:45;50.42;;;26.25;;
80272;SDS011;69574;45.328;9.598;2024-02-21T14:11:11;50.78;;;25.92;;
80272;SDS011;69574;45.328;9.598;2024-02-21T14:13:36;47.05;;;26.52;;
80272;SDS011;69574;45.328;9.598;2024-02-21T14:16:02;48.60;;;26.52;;
80272;SDS011;69574;45.328;9.598;2024-02-21T14:18:28;51.67;;;27.05;;
80272;SDS011;69574;45.328;9.598;2024-02-21T14:20:55;50.65;;;26.90;;
80272;SDS011;69574;45.328;9.598;2024-02-21T14:23:20;47.80;;;26.27;;
80272;SDS011;69574;45.328;9.598;2024-02-21T14:25:46;48.40;;;28.10;;
80272;SDS011;69574;45.328;9.598;2024-02-21T14:28:12;49.65;;;27.70;;
80272;SDS011;69574;45.328;9.598;2024-02-21T14:30:37;48.80;;;26.73;;
80272;SDS011;69574;45.328;9.598;2024-02-21T14:33:03;51.08;;;27.88;;
80272;SDS011;69574;45.328;9.598;2024-02-21T14:35:29;54.53;;;30.20;;
80272;SDS011;69574;45.328;9.598;2024-02-21T14:37:56;53.97;;;29.35;;
80272;SDS011;69574;45.328;9.598;2024-02-21T14:40:23;52.28;;;28.55;;
80272;SDS011;69574;45.328;9.598;2024-02-21T14:42:48;51.97;;;27.63;;